Wetterdaten: Woche 16.03.09 - 22.03.09 (KW12)
Datum Zeit Temperatur Luftfeuchte Luftdruck Niederschlag Wind Richtung Sonnenschein Solar Taupunkt Windchill Windben
16.03.2009 00:00 6.8 C 73 % 1030.7 hPa 0.0 l/m 0.9 km/h (0 Bft) S-SO 0.00 h 0 W/m 2.2 C 6.8 C 2.2 km/h (1 Bft)
16.03.2009 01:00 7.0 C 71 % 1030.7 hPa 0.0 l/m 0.1 km/h (0 Bft) S-SO 0.00 h 0 W/m 2.0 C 7.0 C 0.6 km/h (0 Bft)
16.03.2009 02:00 6.6 C 74 % 1030.6 hPa 0.0 l/m 0.0 km/h (0 Bft) N 0.00 h 0 W/m 2.2 C 6.6 C 0.2 km/h (0 Bft)
16.03.2009 03:00 6.1 C 76 % 1030.2 hPa 0.0 l/m 0.1 km/h (0 Bft) S-SO 0.00 h 0 W/m 2.2 C 6.1 C 0.3 km/h (0 Bft)
16.03.2009 04:00 5.5 C 79 % 1030.0 hPa 0.0 l/m 0.5 km/h (0 Bft) S-SO 0.00 h 0 W/m 2.2 C 5.4 C 1.0 km/h (0 Bft)
16.03.2009 05:00 4.8 C 82 % 1030.4 hPa 0.0 l/m 1.1 km/h (0 Bft) SO 0.00 h 0 W/m 2.0 C 4.8 C 2.4 km/h (1 Bft)
16.03.2009 06:00 3.9 C 85 % 1030.6 hPa 0.0 l/m 1.5 km/h (1 Bft) O-SO 0.03 h 10 W/m 1.5 C 3.8 C 2.8 km/h (1 Bft)
16.03.2009 07:00 3.5 C 88 % 1031.1 hPa 0.0 l/m 0.8 km/h (0 Bft) O 0.60 h 77 W/m 1.8 C 3.4 C 1.4 km/h (1 Bft)
16.03.2009 08:00 5.7 C 85 % 1031.4 hPa 0.0 l/m 1.0 km/h (0 Bft) O-SO 1.00 h 229 W/m 3.4 C 5.7 C 2.2 km/h (1 Bft)
16.03.2009 09:00 8.0 C 72 % 1031.5 hPa 0.0 l/m 3.0 km/h (1 Bft) O-SO 1.00 h 393 W/m 3.3 C 7.7 C 6.5 km/h (2 Bft)
16.03.2009 10:00 9.6 C 67 % 1031.4 hPa 0.0 l/m 3.7 km/h (1 Bft) N-NO 0.83 h 501 W/m 3.8 C 9.4 C 7.7 km/h (2 Bft)
16.03.2009 11:00 10.8 C 64 % 1031.3 hPa 0.0 l/m 12.3 km/h (3 Bft) O-SO 1.00 h 717 W/m 4.2 C 10.8 C 18.6 km/h (3 Bft)
16.03.2009 12:00 11.5 C 60 % 1030.8 hPa 0.0 l/m 8.3 km/h (2 Bft) O-SO 0.73 h 579 W/m 3.9 C 11.5 C 13.4 km/h (3 Bft)
16.03.2009 13:00 12.3 C 54 % 1030.4 hPa 0.0 l/m 4.1 km/h (1 Bft) O-SO 0.87 h 613 W/m 3.3 C 12.3 C 8.1 km/h (2 Bft)
16.03.2009 14:00 12.9 C 51 % 1030.1 hPa 0.0 l/m 6.0 km/h (2 Bft) O-SO 0.95 h 580 W/m 3.0 C 12.9 C 10.1 km/h (2 Bft)
16.03.2009 15:00 13.7 C 48 % 1030.0 hPa 0.0 l/m 5.3 km/h (1 Bft) N 0.62 h 341 W/m 2.9 C 13.7 C 10.1 km/h (2 Bft)
16.03.2009 16:00 13.2 C 49 % 1029.7 hPa 0.0 l/m 3.9 km/h (1 Bft) O 1.00 h 284 W/m 2.7 C 13.2 C 7.4 km/h (2 Bft)
16.03.2009 17:00 12.8 C 49 % 1029.9 hPa 0.0 l/m 2.8 km/h (1 Bft) N-NO 0.30 h 85 W/m 2.3 C 12.8 C 6.4 km/h (2 Bft)
16.03.2009 18:00 11.4 C 53 % 1030.6 hPa 0.0 l/m 2.3 km/h (1 Bft) N-NO 0.05 h 15 W/m 2.2 C 11.4 C 5.7 km/h (1 Bft)
16.03.2009 19:00 9.3 C 61 % 1031.1 hPa 0.0 l/m 1.8 km/h (1 Bft) O-SO 0.00 h 0 W/m 2.2 C 9.3 C 3.7 km/h (1 Bft)
16.03.2009 20:00 8.3 C 66 % 1031.0 hPa 0.0 l/m 2.0 km/h (1 Bft) NO 0.00 h 0 W/m 2.2 C 8.2 C 5.0 km/h (1 Bft)
16.03.2009 21:00 7.5 C 68 % 1031.1 hPa 0.0 l/m 0.3 km/h (0 Bft) N-NO 0.00 h 0 W/m 1.9 C 7.5 C 1.4 km/h (1 Bft)
16.03.2009 22:00 5.7 C 75 % 1031.2 hPa 0.0 l/m 0.6 km/h (0 Bft) O-SO 0.00 h 0 W/m 1.5 C 5.7 C 1.4 km/h (1 Bft)
16.03.2009 23:00 4.4 C 80 % 1031.4 hPa 0.0 l/m 0.2 km/h (0 Bft) O-SO 0.00 h 0 W/m 1.3 C 4.4 C 0.8 km/h (0 Bft)
17.03.2009 00:00 3.7 C 83 % 1031.1 hPa 0.0 l/m 0.4 km/h (0 Bft) S-SW 0.00 h 0 W/m 1.0 C 3.7 C 1.3 km/h (1 Bft)
17.03.2009 01:00 3.3 C 83 % 1030.9 hPa 0.0 l/m 0.2 km/h (0 Bft) S-SO 0.00 h 0 W/m 0.8 C 3.3 C 1.0 km/h (0 Bft)
17.03.2009 02:00 2.8 C 85 % 1030.5 hPa 0.0 l/m 0.9 km/h (0 Bft) O-NO 0.00 h 0 W/m 0.6 C 2.8 C 1.5 km/h (1 Bft)
17.03.2009 03:00 2.2 C 87 % 1030.2 hPa 0.0 l/m 2.4 km/h (1 Bft) O-SO 0.00 h 0 W/m 0.3 C 1.9 C 3.6 km/h (1 Bft)
17.03.2009 04:00 1.6 C 88 % 1030.2 hPa 0.0 l/m 1.6 km/h (1 Bft) O 0.00 h 0 W/m -0.2 C 1.6 C 2.7 km/h (1 Bft)
17.03.2009 05:00 0.9 C 90 % 1030.6 hPa 0.0 l/m 0.7 km/h (0 Bft) O 0.00 h 0 W/m -0.5 C 0.9 C 1.6 km/h (1 Bft)
17.03.2009 06:00 0.5 C 91 % 1031.1 hPa 0.0 l/m 0.9 km/h (0 Bft) O 0.02 h 10 W/m -0.8 C 0.5 C 1.6 km/h (1 Bft)
17.03.2009 07:00 0.6 C 93 % 1031.7 hPa 0.0 l/m 0.0 km/h (0 Bft) N 0.48 h 75 W/m -0.4 C 0.6 C 0.0 km/h (0 Bft)
17.03.2009 08:00 3.0 C 91 % 1031.9 hPa 0.0 l/m 0.1 km/h (0 Bft) O 1.00 h 216 W/m 1.7 C 3.0 C 0.7 km/h (0 Bft)
17.03.2009 09:00 5.5 C 78 % 1032.0 hPa 0.0 l/m 0.2 km/h (0 Bft) O 1.00 h 386 W/m 1.9 C 5.5 C 1.0 km/h (0 Bft)
17.03.2009 10:00 8.2 C 68 % 1031.7 hPa 0.0 l/m 2.2 km/h (1 Bft) NW 1.00 h 492 W/m 2.7 C 8.1 C 3.7 km/h (1 Bft)
17.03.2009 11:00 11.0 C 59 % 1031.4 hPa 0.0 l/m 2.3 km/h (1 Bft) W-NW 1.00 h 601 W/m 3.3 C 10.9 C 4.5 km/h (1 Bft)
17.03.2009 12:00 13.2 C 51 % 1030.8 hPa 0.0 l/m 3.7 km/h (1 Bft) O-SO 1.00 h 627 W/m 3.2 C 13.2 C 6.9 km/h (2 Bft)
17.03.2009 13:00 14.1 C 48 % 1030.4 hPa 0.0 l/m 2.9 km/h (1 Bft) SO 1.00 h 562 W/m 3.3 C 14.1 C 5.8 km/h (2 Bft)
17.03.2009 14:00 15.1 C 48 % 1029.9 hPa 0.0 l/m 3.4 km/h (1 Bft) O-SO 0.80 h 455 W/m 4.2 C 15.1 C 6.5 km/h (2 Bft)
17.03.2009 15:00 14.9 C 48 % 1029.7 hPa 0.0 l/m 3.6 km/h (1 Bft) O-SO 0.40 h 275 W/m 4.1 C 14.9 C 6.3 km/h (2 Bft)
17.03.2009 16:00 14.7 C 50 % 1029.3 hPa 0.0 l/m 4.9 km/h (1 Bft) SO 0.72 h 234 W/m 4.5 C 14.7 C 8.1 km/h (2 Bft)
17.03.2009 17:00 14.4 C 50 % 1029.4 hPa 0.0 l/m 3.3 km/h (1 Bft) SO 0.28 h 93 W/m 4.1 C 14.4 C 6.0 km/h (2 Bft)
17.03.2009 18:00 12.8 C 53 % 1030.0 hPa 0.0 l/m 1.1 km/h (0 Bft) O 0.03 h 17 W/m 3.4 C 12.8 C 2.5 km/h (1 Bft)
17.03.2009 19:00 10.7 C 60 % 1030.6 hPa 0.0 l/m 1.9 km/h (1 Bft) O 0.00 h 0 W/m 3.3 C 10.7 C 3.2 km/h (1 Bft)
17.03.2009 20:00 9.1 C 66 % 1031.5 hPa 0.0 l/m 1.4 km/h (1 Bft) O 0.00 h 0 W/m 3.1 C 9.1 C 3.6 km/h (1 Bft)
17.03.2009 21:00 8.7 C 67 % 1031.9 hPa 0.0 l/m 1.1 km/h (1 Bft) N-NO 0.00 h 0 W/m 2.9 C 8.7 C 3.4 km/h (1 Bft)
17.03.2009 22:00 8.0 C 70 % 1032.3 hPa 0.0 l/m 0.9 km/h (0 Bft) NO 0.00 h 0 W/m 2.9 C 8.0 C 2.7 km/h (1 Bft)
17.03.2009 23:00 7.2 C 74 % 1032.4 hPa 0.0 l/m 1.4 km/h (1 Bft) O-NO 0.00 h 0 W/m 2.9 C 7.2 C 4.1 km/h (1 Bft)
18.03.2009 00:00 6.5 C 76 % 1032.2 hPa 0.0 l/m 0.8 km/h (0 Bft) O-NO 0.00 h 0 W/m 2.6 C 6.4 C 2.8 km/h (1 Bft)
18.03.2009 01:00 5.3 C 81 % 1032.2 hPa 0.0 l/m 1.2 km/h (1 Bft) N 0.00 h 0 W/m 2.3 C 5.3 C 3.6 km/h (1 Bft)
18.03.2009 02:00 4.4 C 83 % 1031.9 hPa 0.0 l/m 1.0 km/h (0 Bft) O 0.00 h 0 W/m 1.7 C 4.4 C 2.1 km/h (1 Bft)
18.03.2009 03:00 3.5 C 87 % 1031.8 hPa 0.0 l/m 0.2 km/h (0 Bft) NO 0.00 h 0 W/m 1.6 C 3.5 C 1.2 km/h (1 Bft)
18.03.2009 04:00 3.3 C 88 % 1031.8 hPa 0.0 l/m 0.5 km/h (0 Bft) NO 0.00 h 0 W/m 1.5 C 3.3 C 1.9 km/h (1 Bft)
18.03.2009 05:00 2.9 C 89 % 1031.9 hPa 0.0 l/m 0.6 km/h (0 Bft) O 0.00 h 0 W/m 1.3 C 2.9 C 2.3 km/h (1 Bft)
18.03.2009 06:00 2.7 C 90 % 1032.0 hPa 0.0 l/m 0.6 km/h (0 Bft) O-NO 0.00 h 11 W/m 1.2 C 2.7 C 2.3 km/h (1 Bft)
18.03.2009 07:00 2.8 C 90 % 1032.1 hPa 0.0 l/m 0.8 km/h (0 Bft) N 0.55 h 82 W/m 1.3 C 2.7 C 2.2 km/h (1 Bft)
18.03.2009 08:00 4.6 C 87 % 1031.7 hPa 0.0 l/m 0.3 km/h (0 Bft) S-SO 1.00 h 237 W/m 2.7 C 4.6 C 1.0 km/h (0 Bft)
18.03.2009 09:00 7.2 C 74 % 1031.0 hPa 0.0 l/m 2.0 km/h (1 Bft) O-SO 1.00 h 368 W/m 2.9 C 7.1 C 5.0 km/h (1 Bft)
18.03.2009 10:00 9.0 C 68 % 1030.7 hPa 0.0 l/m 3.6 km/h (1 Bft) O-SO 1.00 h 505 W/m 3.4 C 8.8 C 7.1 km/h (2 Bft)
18.03.2009 11:00 11.0 C 53 % 1030.0 hPa 0.0 l/m 3.8 km/h (1 Bft) N-NO 1.00 h 615 W/m 1.9 C 11.0 C 7.8 km/h (2 Bft)
18.03.2009 12:00 12.2 C 45 % 1029.4 hPa 0.0 l/m 4.1 km/h (1 Bft) O-SO 1.00 h 659 W/m 0.6 C 12.2 C 8.0 km/h (2 Bft)
18.03.2009 13:00 13.1 C 40 % 1028.5 hPa 0.0 l/m 5.4 km/h (1 Bft) O-SO 1.00 h 651 W/m -0.3 C 13.1 C 9.9 km/h (2 Bft)
18.03.2009 14:00 13.8 C 32 % 1027.8 hPa 0.0 l/m 6.6 km/h (2 Bft) O-SO 1.00 h 546 W/m -2.6 C 13.8 C 11.8 km/h (2 Bft)
18.03.2009 15:00 13.4 C 31 % 1027.2 hPa 0.0 l/m 10.3 km/h (2 Bft) O-SO 1.00 h 353 W/m -3.5 C 13.4 C 16.7 km/h (3 Bft)
18.03.2009 16:00 13.2 C 29 % 1026.9 hPa 0.0 l/m 10.6 km/h (2 Bft) O-SO 1.00 h 266 W/m -4.5 C 13.2 C 16.7 km/h (3 Bft)
18.03.2009 17:00 12.4 C 30 % 1026.7 hPa 0.0 l/m 4.4 km/h (1 Bft) O-SO 0.10 h 76 W/m -4.5 C 12.4 C 8.7 km/h (2 Bft)
18.03.2009 18:00 11.3 C 35 % 1027.1 hPa 0.0 l/m 2.4 km/h (1 Bft) O 0.00 h 14 W/m -3.8 C 11.3 C 5.4 km/h (1 Bft)
18.03.2009 19:00 10.3 C 35 % 1027.3 hPa 0.0 l/m 0.6 km/h (0 Bft) N-NO 0.00 h 0 W/m -4.3 C 10.3 C 1.9 km/h (1 Bft)
18.03.2009 20:00 8.4 C 43 % 1026.9 hPa 0.0 l/m 0.4 km/h (0 Bft) O-NO 0.00 h 0 W/m -3.4 C 8.4 C 1.3 km/h (1 Bft)
18.03.2009 21:00 6.7 C 48 % 1026.6 hPa 0.0 l/m 1.8 km/h (1 Bft) N-NO 0.00 h 0 W/m -3.5 C 6.6 C 3.1 km/h (1 Bft)
18.03.2009 22:00 4.8 C 57 % 1026.2 hPa 0.0 l/m 1.4 km/h (1 Bft) O 0.00 h 0 W/m -3.1 C 4.7 C 2.4 km/h (1 Bft)
18.03.2009 23:00 3.2 C 63 % 1025.8 hPa 0.0 l/m 2.3 km/h (1 Bft) O 0.00 h 0 W/m -3.1 C 3.0 C 3.6 km/h (1 Bft)
19.03.2009 00:00 2.0 C 68 % 1025.5 hPa 0.0 l/m 1.6 km/h (1 Bft) O-SO 0.00 h 0 W/m -3.2 C 2.0 C 2.5 km/h (1 Bft)
19.03.2009 01:00 1.3 C 71 % 1025.2 hPa 0.0 l/m 1.6 km/h (1 Bft) O-SO 0.00 h 0 W/m -3.4 C 1.3 C 2.8 km/h (1 Bft)
19.03.2009 02:00 0.6 C 73 % 1024.9 hPa 0.0 l/m 2.2 km/h (1 Bft) O 0.00 h 0 W/m -3.7 C 0.5 C 3.7 km/h (1 Bft)
19.03.2009 03:00 -0.4 C 77 % 1024.4 hPa 0.0 l/m 1.2 km/h (1 Bft) O-NO 0.00 h 0 W/m -4.0 C -0.4 C 2.3 km/h (1 Bft)
19.03.2009 04:00 -0.9 C 79 % 1023.9 hPa 0.0 l/m 0.8 km/h (0 Bft) O-NO 0.00 h 0 W/m -4.0 C -0.9 C 1.6 km/h (1 Bft)
19.03.2009 05:00 -1.1 C 79 % 1023.8 hPa 0.0 l/m 1.4 km/h (1 Bft) O-NO 0.00 h 0 W/m -4.3 C -1.1 C 2.6 km/h (1 Bft)
19.03.2009 06:00 -1.5 C 80 % 1023.6 hPa 0.0 l/m 1.0 km/h (0 Bft) O-NO 0.02 h 10 W/m -4.5 C -1.5 C 1.7 km/h (1 Bft)
19.03.2009 07:00 -1.5 C 82 % 1023.5 hPa 0.0 l/m 0.0 km/h (0 Bft) N 0.57 h 86 W/m -4.1 C -1.5 C 0.1 km/h (0 Bft)
19.03.2009 08:00 0.9 C 77 % 1023.3 hPa 0.0 l/m 0.1 km/h (0 Bft) O-NO 0.67 h 207 W/m -2.6 C 0.9 C 0.6 km/h (0 Bft)
19.03.2009 09:00 3.6 C 63 % 1023.0 hPa 0.0 l/m 0.7 km/h (0 Bft) NW 1.00 h 403 W/m -2.8 C 3.6 C 2.0 km/h (1 Bft)
19.03.2009 10:00 6.7 C 50 % 1022.4 hPa 0.0 l/m 1.1 km/h (0 Bft) NW 1.00 h 551 W/m -3.1 C 6.7 C 2.5 km/h (1 Bft)
19.03.2009 11:00 9.6 C 39 % 1021.8 hPa 0.0 l/m 2.8 km/h (1 Bft) NW 1.00 h 639 W/m -3.7 C 9.6 C 5.1 km/h (1 Bft)
19.03.2009 12:00 11.8 C 29 % 1021.3 hPa 0.0 l/m 3.0 km/h (1 Bft) W 0.83 h 624 W/m -5.4 C 11.8 C 5.5 km/h (1 Bft)
19.03.2009 13:00 12.8 C 27 % 1020.7 hPa 0.0 l/m 2.2 km/h (1 Bft) O 0.75 h 459 W/m -5.5 C 12.8 C 4.4 km/h (1 Bft)
19.03.2009 14:00 13.4 C 27 % 1020.1 hPa 0.0 l/m 3.2 km/h (1 Bft) O-SO 0.87 h 482 W/m -5.1 C 13.4 C 6.6 km/h (2 Bft)
19.03.2009 15:00 12.8 C 27 % 1020.0 hPa 0.0 l/m 2.9 km/h (1 Bft) O 0.03 h 161 W/m -5.5 C 12.8 C 6.3 km/h (2 Bft)
19.03.2009 16:00 12.0 C 29 % 1020.5 hPa 0.0 l/m 5.4 km/h (1 Bft) O-SO 0.22 h 159 W/m -5.5 C 12.0 C 10.2 km/h (2 Bft)
19.03.2009 17:00 11.1 C 30 % 1021.2 hPa 0.0 l/m 6.5 km/h (2 Bft) N-NO 0.07 h 76 W/m -5.8 C 11.1 C 12.8 km/h (3 Bft)
19.03.2009 18:00 9.7 C 31 % 1022.3 hPa 0.0 l/m 6.8 km/h (2 Bft) N-NO 0.02 h 15 W/m -6.6 C 9.2 C 13.1 km/h (3 Bft)
19.03.2009 19:00 8.2 C 35 % 1023.4 hPa 0.0 l/m 5.3 km/h (1 Bft) N-NO 0.00 h 0 W/m -6.4 C 7.6 C 9.9 km/h (2 Bft)
19.03.2009 20:00 7.3 C 43 % 1024.0 hPa 0.0 l/m 1.9 km/h (1 Bft) N-NO 0.00 h 0 W/m -4.5 C 7.2 C 4.6 km/h (1 Bft)
19.03.2009 21:00 6.3 C 49 % 1024.5 hPa 0.0 l/m 2.1 km/h (1 Bft) NO 0.00 h 0 W/m -3.7 C 6.1 C 5.4 km/h (1 Bft)
19.03.2009 22:00 5.3 C 60 % 1025.0 hPa 0.0 l/m 2.9 km/h (1 Bft) O 0.00 h 0 W/m -1.7 C 5.0 C 6.1 km/h (2 Bft)
19.03.2009 23:00 4.4 C 66 % 1025.2 hPa 0.0 l/m 1.3 km/h (1 Bft) O 0.00 h 0 W/m -1.5 C 4.3 C 3.9 km/h (1 Bft)
20.03.2009 00:00 3.5 C 65 % 1025.3 hPa 0.0 l/m 2.3 km/h (1 Bft) NO 0.00 h 0 W/m -2.5 C 3.2 C 5.9 km/h (2 Bft)
20.03.2009 01:00 2.6 C 64 % 1025.4 hPa 0.0 l/m 2.8 km/h (1 Bft) NO 0.00 h 0 W/m -3.5 C 2.2 C 6.8 km/h (2 Bft)
20.03.2009 02:00 2.1 C 63 % 1025.7 hPa 0.0 l/m 4.9 km/h (1 Bft) N-NO 0.00 h 0 W/m -4.3 C 1.0 C 9.4 km/h (2 Bft)
20.03.2009 03:00 1.4 C 67 % 1025.7 hPa 0.0 l/m 3.8 km/h (1 Bft) N-NO 0.00 h 0 W/m -4.1 C 0.9 C 7.5 km/h (2 Bft)
20.03.2009 04:00 0.9 C 70 % 1025.4 hPa 0.0 l/m 2.0 km/h (1 Bft) NO 0.00 h 0 W/m -4.0 C 0.8 C 4.9 km/h (1 Bft)
20.03.2009 05:00 -0.2 C 75 % 1025.7 hPa 0.0 l/m 1.1 km/h (1 Bft) NO 0.00 h 0 W/m -4.2 C -0.3 C 3.2 km/h (1 Bft)
20.03.2009 06:00 -0.3 C 75 % 1026.0 hPa 0.0 l/m 1.6 km/h (1 Bft) NO 0.02 h 11 W/m -4.1 C -0.4 C 4.6 km/h (1 Bft)
20.03.2009 07:00 -0.3 C 77 % 1026.5 hPa 0.0 l/m 2.3 km/h (1 Bft) O 0.00 h 46 W/m -3.9 C -0.5 C 4.9 km/h (1 Bft)
20.03.2009 08:00 0.8 C 75 % 1026.9 hPa 0.0 l/m 1.5 km/h (1 Bft) O 0.10 h 140 W/m -3.1 C 0.7 C 3.4 km/h (1 Bft)
20.03.2009 09:00 2.9 C 62 % 1026.7 hPa 0.0 l/m 2.9 km/h (1 Bft) N-NO 0.37 h 264 W/m -3.6 C 2.5 C 6.5 km/h (2 Bft)
20.03.2009 10:00 4.5 C 48 % 1027.0 hPa 0.0 l/m 6.4 km/h (2 Bft) O-SO 0.52 h 418 W/m -5.7 C 3.3 C 13.5 km/h (3 Bft)
20.03.2009 11:00 3.3 C 47 % 1027.6 hPa 0.0 l/m 7.5 km/h (2 Bft) O-SO 0.00 h 202 W/m -6.8 C 1.6 C 13.8 km/h (3 Bft)
20.03.2009 12:00 4.7 C 48 % 1027.8 hPa 0.0 l/m 13.8 km/h (3 Bft) O-SO 0.65 h 678 W/m -5.5 C 1.7 C 23.2 km/h (4 Bft)
20.03.2009 13:00 4.7 C 46 % 1027.9 hPa 0.0 l/m 7.1 km/h (2 Bft) O-SO 0.35 h 335 W/m -5.8 C 3.2 C 13.8 km/h (3 Bft)
20.03.2009 14:00 4.9 C 43 % 1027.7 hPa 0.0 l/m 7.4 km/h (2 Bft) O-SO 0.25 h 327 W/m -6.6 C 3.5 C 13.9 km/h (3 Bft)
20.03.2009 15:00 4.4 C 41 % 1027.8 hPa 0.0 l/m 5.2 km/h (1 Bft) NO 0.02 h 166 W/m -7.6 C 3.5 C 10.8 km/h (2 Bft)
20.03.2009 16:00 4.7 C 39 % 1028.0 hPa 0.0 l/m 5.8 km/h (2 Bft) O-SO 0.40 h 211 W/m -8.0 C 3.5 C 11.9 km/h (2 Bft)
20.03.2009 17:00 4.0 C 42 % 1028.2 hPa 0.0 l/m 4.8 km/h (1 Bft) NO 0.02 h 63 W/m -7.8 C 3.1 C 10.1 km/h (2 Bft)
20.03.2009 18:00 3.4 C 44 % 1028.3 hPa 0.0 l/m 3.0 km/h (1 Bft) N-NO 0.20 h 23 W/m -7.7 C 3.0 C 6.7 km/h (2 Bft)
20.03.2009 19:00 2.5 C 48 % 1028.8 hPa 0.0 l/m 3.5 km/h (1 Bft) N-NO 0.00 h 0 W/m -7.4 C 1.9 C 7.3 km/h (2 Bft)
20.03.2009 20:00 1.6 C 52 % 1028.8 hPa 0.0 l/m 1.6 km/h (1 Bft) NO 0.00 h 0 W/m -7.3 C 1.5 C 4.1 km/h (1 Bft)
20.03.2009 21:00 1.0 C 54 % 1028.7 hPa 0.0 l/m 0.7 km/h (0 Bft) O-NO 0.00 h 0 W/m -7.1 C 1.0 C 2.9 km/h (1 Bft)
20.03.2009 22:00 0.3 C 58 % 1028.8 hPa 0.0 l/m 1.0 km/h (0 Bft) N-NO 0.00 h 0 W/m -6.9 C 0.2 C 2.9 km/h (1 Bft)
20.03.2009 23:00 -0.5 C 61 % 1028.6 hPa 0.0 l/m 2.5 km/h (1 Bft) N-NO 0.00 h 0 W/m -7.1 C -0.8 C 5.0 km/h (1 Bft)
21.03.2009 00:00 -0.7 C 60 % 1028.2 hPa 0.0 l/m 1.9 km/h (1 Bft) NO 0.00 h 0 W/m -7.5 C -1.0 C 4.0 km/h (1 Bft)
21.03.2009 01:00 -1.0 C 61 % 1028.0 hPa 0.0 l/m 0.5 km/h (0 Bft) N-NO 0.00 h 0 W/m -7.5 C -1.0 C 1.4 km/h (1 Bft)
21.03.2009 02:00 -1.3 C 63 % 1027.7 hPa 0.0 l/m 0.1 km/h (0 Bft) N-NW 0.00 h 0 W/m -7.5 C -1.3 C 0.9 km/h (0 Bft)
21.03.2009 03:00 -2.0 C 65 % 1027.6 hPa 0.0 l/m 1.2 km/h (1 Bft) N-NW 0.00 h 0 W/m -7.6 C -2.0 C 3.3 km/h (1 Bft)
21.03.2009 04:00 -2.3 C 66 % 1027.8 hPa 0.0 l/m 0.9 km/h (0 Bft) NO 0.00 h 0 W/m -7.6 C -2.3 C 2.9 km/h (1 Bft)
21.03.2009 05:00 -2.5 C 68 % 1027.8 hPa 0.0 l/m 1.1 km/h (1 Bft) NO 0.00 h 0 W/m -7.6 C -2.5 C 3.0 km/h (1 Bft)
21.03.2009 06:00 -3.0 C 71 % 1028.0 hPa 0.0 l/m 0.4 km/h (0 Bft) NO 0.03 h 13 W/m -7.5 C -3.0 C 0.9 km/h (0 Bft)
21.03.2009 07:00 -2.5 C 72 % 1028.5 hPa 0.0 l/m 0.0 km/h (0 Bft) N 0.60 h 94 W/m -6.9 C -2.5 C 0.0 km/h (0 Bft)
21.03.2009 08:00 0.5 C 62 % 1028.7 hPa 0.0 l/m 0.6 km/h (0 Bft) O 1.00 h 258 W/m -5.8 C 0.5 C 1.6 km/h (1 Bft)
21.03.2009 09:00 2.4 C 58 % 1028.6 hPa 0.0 l/m 4.1 km/h (1 Bft) O 0.93 h 391 W/m -5.0 C 1.7 C 8.4 km/h (2 Bft)
21.03.2009 10:00 3.9 C 53 % 1028.2 hPa 0.0 l/m 5.5 km/h (1 Bft) N 1.00 h 568 W/m -4.8 C 2.9 C 11.0 km/h (2 Bft)
21.03.2009 11:00 4.9 C 49 % 1028.1 hPa 0.0 l/m 9.1 km/h (2 Bft) O-SO 1.00 h 699 W/m -4.9 C 3.0 C 15.8 km/h (3 Bft)
21.03.2009 12:00 6.0 C 43 % 1027.9 hPa 0.0 l/m 5.9 km/h (2 Bft) O-SO 0.98 h 692 W/m -5.8 C 5.0 C 11.5 km/h (2 Bft)
21.03.2009 13:00 7.0 C 38 % 1027.3 hPa 0.0 l/m 6.3 km/h (2 Bft) N-NO 1.00 h 664 W/m -6.3 C 6.0 C 13.0 km/h (3 Bft)
21.03.2009 14:00 7.5 C 37 % 1026.9 hPa 0.0 l/m 6.3 km/h (2 Bft) O-SO 1.00 h 587 W/m -6.2 C 6.6 C 11.8 km/h (2 Bft)
21.03.2009 15:00 7.9 C 34 % 1026.9 hPa 0.0 l/m 5.9 km/h (2 Bft) O-SO 1.00 h 470 W/m -7.0 C 7.0 C 11.8 km/h (2 Bft)
21.03.2009 16:00 7.2 C 36 % 1026.5 hPa 0.0 l/m 9.5 km/h (2 Bft) O-SO 1.00 h 316 W/m -6.8 C 5.6 C 15.2 km/h (3 Bft)
21.03.2009 17:00 6.3 C 37 % 1026.4 hPa 0.0 l/m 8.9 km/h (2 Bft) O-SO 0.23 h 87 W/m -7.1 C 4.6 C 13.6 km/h (3 Bft)
21.03.2009 18:00 5.1 C 42 % 1026.7 hPa 0.0 l/m 3.7 km/h (1 Bft) O-SO 0.17 h 21 W/m -6.8 C 4.8 C 6.0 km/h (2 Bft)
21.03.2009 19:00 3.7 C 46 % 1027.3 hPa 0.0 l/m 0.4 km/h (0 Bft) O-SO 0.00 h 0 W/m -6.9 C 3.7 C 1.3 km/h (1 Bft)
21.03.2009 20:00 2.3 C 54 % 1027.6 hPa 0.0 l/m 1.0 km/h (0 Bft) O-SO 0.00 h 0 W/m -6.1 C 2.2 C 1.8 km/h (1 Bft)
21.03.2009 21:00 0.4 C 63 % 1028.0 hPa 0.0 l/m 1.1 km/h (1 Bft) O-SO 0.00 h 0 W/m -5.9 C 0.4 C 2.3 km/h (1 Bft)
21.03.2009 22:00 -0.6 C 68 % 1028.1 hPa 0.0 l/m 1.6 km/h (1 Bft) O-SO 0.00 h 0 W/m -5.8 C -0.6 C 2.6 km/h (1 Bft)
21.03.2009 23:00 -1.3 C 71 % 1028.1 hPa 0.0 l/m 1.3 km/h (1 Bft) O-SO 0.00 h 0 W/m -5.8 C -1.3 C 2.3 km/h (1 Bft)
22.03.2009 00:00 -1.9 C 75 % 1028.0 hPa 0.0 l/m 2.0 km/h (1 Bft) O-SO 0.00 h 0 W/m -5.8 C -2.0 C 3.2 km/h (1 Bft)
22.03.2009 01:00 -2.2 C 75 % 1027.8 hPa 0.0 l/m 1.2 km/h (1 Bft) O-SO 0.00 h 0 W/m -6.0 C -2.2 C 2.3 km/h (1 Bft)
22.03.2009 02:00 -2.6 C 76 % 1027.6 hPa 0.0 l/m 0.7 km/h (0 Bft) O-SO 0.00 h 0 W/m -6.3 C -2.6 C 1.5 km/h (1 Bft)
22.03.2009 03:00 -3.0 C 78 % 1027.4 hPa 0.0 l/m 1.6 km/h (1 Bft) O-SO 0.00 h 0 W/m -6.3 C -3.0 C 2.6 km/h (1 Bft)
22.03.2009 04:00 -3.3 C 80 % 1027.4 hPa 0.0 l/m 1.7 km/h (1 Bft) O-SO 0.00 h 0 W/m -6.2 C -3.3 C 2.8 km/h (1 Bft)
22.03.2009 05:00 -3.2 C 82 % 1027.7 hPa 0.0 l/m 1.3 km/h (1 Bft) O-SO 0.00 h 0 W/m -5.8 C -3.2 C 2.3 km/h (1 Bft)
22.03.2009 06:00 -2.8 C 83 % 1027.7 hPa 0.0 l/m 0.6 km/h (0 Bft) O-SO 0.00 h 15 W/m -5.3 C -2.8 C 1.0 km/h (0 Bft)
22.03.2009 07:00 -2.1 C 81 % 1027.9 hPa 0.0 l/m 0.5 km/h (0 Bft) O-SO 0.00 h 66 W/m -5.0 C -2.1 C 1.6 km/h (1 Bft)
22.03.2009 08:00 -0.8 C 77 % 1028.2 hPa 0.0 l/m 0.6 km/h (0 Bft) O-SO 0.00 h 151 W/m -4.3 C -0.8 C 1.8 km/h (1 Bft)
22.03.2009 09:00 1.6 C 67 % 1028.0 hPa 0.0 l/m 0.9 km/h (0 Bft) O-SO 0.45 h 271 W/m -4.0 C 1.6 C 2.4 km/h (1 Bft)
22.03.2009 10:00 4.9 C 53 % 1027.7 hPa 0.0 l/m 3.7 km/h (1 Bft) S-SO 0.73 h 496 W/m -3.9 C 4.5 C 6.8 km/h (2 Bft)
22.03.2009 11:00 6.8 C 46 % 1027.1 hPa 0.0 l/m 3.9 km/h (1 Bft) S-SO 0.62 h 410 W/m -3.9 C 6.5 C 7.1 km/h (2 Bft)
22.03.2009 12:00 9.2 C 42 % 1026.5 hPa 0.0 l/m 5.0 km/h (1 Bft) SO 1.00 h 677 W/m -2.9 C 8.8 C 8.3 km/h (2 Bft)
22.03.2009 13:00 11.5 C 33 % 1025.3 hPa 0.0 l/m 4.6 km/h (1 Bft) W-SW 1.00 h 660 W/m -4.2 C 11.5 C 8.0 km/h (2 Bft)
22.03.2009 14:00 12.6 C 29 % 1024.6 hPa 0.0 l/m 6.5 km/h (2 Bft) W-SW 1.00 h 582 W/m -5.1 C 12.6 C 10.3 km/h (2 Bft)
22.03.2009 15:00 12.9 C 27 % 1024.3 hPa 0.0 l/m 8.5 km/h (2 Bft) W 1.00 h 454 W/m -5.4 C 12.9 C 13.4 km/h (3 Bft)
22.03.2009 16:00 12.9 C 26 % 1024.1 hPa 0.0 l/m 11.3 km/h (2 Bft) W 1.00 h 336 W/m -5.9 C 12.9 C 17.2 km/h (3 Bft)
22.03.2009 17:00 11.6 C 33 % 1024.8 hPa 0.0 l/m 11.5 km/h (2 Bft) W-NW 0.60 h 105 W/m -4.2 C 11.6 C 18.1 km/h (3 Bft)
22.03.2009 18:00 10.3 C 38 % 1025.3 hPa 0.0 l/m 5.0 km/h (1 Bft) W-NW 0.30 h 28 W/m -3.2 C 10.3 C 7.9 km/h (2 Bft)
22.03.2009 19:00 8.8 C 45 % 1025.9 hPa 0.0 l/m 0.5 km/h (0 Bft) NW 0.00 h 0 W/m -2.4 C 8.8 C 1.5 km/h (1 Bft)
22.03.2009 20:00 7.4 C 53 % 1026.6 hPa 0.0 l/m 1.9 km/h (1 Bft) NW 0.00 h 0 W/m -1.6 C 7.3 C 4.8 km/h (1 Bft)
22.03.2009 21:00 6.8 C 59 % 1026.8 hPa 0.0 l/m 1.5 km/h (1 Bft) S-SO 0.00 h 0 W/m -0.6 C 6.7 C 3.4 km/h (1 Bft)
22.03.2009 22:00 5.6 C 64 % 1026.9 hPa 0.0 l/m 1.0 km/h (0 Bft) N-NW 0.00 h 0 W/m -0.7 C 5.6 C 2.6 km/h (1 Bft)
22.03.2009 23:00 3.9 C 71 % 1027.0 hPa 0.0 l/m 0.6 km/h (0 Bft) N 0.00 h 0 W/m -1.0 C 3.9 C 1.2 km/h (1 Bft)
Min-Datum _ 22.03.09 19.03.09 19.03.09 - 16.03.09 - - - 20.03.09 22.03.09 16.03.09
_ Min-Zeit 04:48 14:07 14:45 - 00:00 - - - 16:29 00:30 00:02
Minimum _ -3.7 C 24 % 1019.8 hPa - 0.0 km/h (0 Bft) - - - -8.8 C -4.0 C 0.0 km/h (0 Bft)
Max-Datum _ 17.03.09 17.03.09 17.03.09 16.03.09 20.03.09 - 16.03.09 20.03.09 17.03.09 17.03.09 20.03.09
_ Max-Zeit 14:26 08:02 23:00 00:00 12:35 - 06:48 12:41 14:18 14:26 12:34
Maximum _ 15.6 C 94 % 1032.5 hPa 0.0 l/m 27.8 km/h
O-SO (4 Bft)
- 0.02 h 997 W/m 5.6 C 15.6 C 38.2 km/h
O-SO (5 Bft)
Durchschnitt _ 5.5 C 60 % 1028.0 hPa #0.0 l/m 2.8 km/h (1 Bft) O-SO #54:56 h 316 W/m -2.3 C 5.3 C 5.5 km/h (1 Bft)
© Kaiko 2009